Time;durP1;ratioP1;P1;durP2;ratioP2;P2;SDS_P1;SDS_P2;PMS_P1;PMS_P2;Temp;Humidity;BMP_temperature;BMP_pressure;BME280_temperature;BME280_humidity;BME280_pressure;Samples;Min_cycle;Max_cycle;Signal;HPM_P1;HPM_P2
2022/05/10 01:02:04;;;;;;;;;;;;;;;11.41;100.00;100552.41;6111920;23;19924;-89
2022/05/10 01:04:34;;;;;;;;;;;;;;;11.40;100.00;100559.97;6127634;23;19913;-90
2022/05/10 01:07:02;;;;;;;;;;;;;;;11.52;100.00;100564.09;6128412;23;19913;-90
2022/05/10 01:09:27;;;;;;;;;;;;;;;11.51;100.00;100554.97;6105431;23;20373;-89
2022/05/10 01:11:56;;;;;;;;;;;;;;;11.46;100.00;100549.13;6153713;23;19913;-90
2022/05/10 01:14:40;;;;;;;;;;;;;;;11.49;100.00;100553.81;6128465;23;19917;-89
2022/05/10 01:17:06;;;;;;;;;;;;;;;11.44;100.00;100552.34;6128237;23;19923;-90
2022/05/10 01:19:31;;;;;;;;;;;;;;;11.44;100.00;100552.34;6154993;23;19909;-88
2022/05/10 01:22:15;;;;;;;;;;;;;;;11.39;100.00;100546.50;6152816;23;19917;-91
2022/05/10 01:24:41;;;;;;;;;;;;;;;11.28;100.00;100562.63;6154626;23;19912;-91
2022/05/10 01:27:25;;;;;;;;;;;;;;;10.98;100.00;100558.88;6154275;23;19916;-91
2022/05/10 01:29:53;;;;;;;;;;;;;;;10.90;100.00;100556.66;6151575;23;19913;-91
2022/05/10 01:35:09;;;;;;;;;;;;;;;10.72;100.00;100557.78;6129355;23;19994;-89
2022/05/10 01:37:35;;;;;;;;;;;;;;;10.77;100.00;100554.50;6127512;23;19916;-88
2022/05/10 01:40:18;;;;;;;;;;;;;;;10.74;100.00;100549.81;6126454;23;19912;-88
2022/05/10 01:42:45;;;;;;;;;;;;;;;10.70;100.00;100545.53;6127520;23;19991;-87
2022/05/10 01:45:13;;;;;;;;;;;;;;;10.75;100.00;100548.63;6103021;23;19912;-88
2022/05/10 01:47:39;;;;;;;;;;;;;;;10.72;100.00;100549.44;6103117;23;19908;-88
2022/05/10 01:50:22;;;;;;;;;;;;;;;10.72;100.00;100543.91;6153534;23;20047;-87
2022/05/10 01:53:07;;;;;;;;;;;;;;;10.69;100.00;100543.97;6126803;23;19940;-88
2022/05/10 01:55:34;;;;;;;;;;;;;;;10.77;100.00;100545.41;6127481;23;20298;-88
2022/05/10 01:58:04;;;;;;;;;;;;;;;10.90;100.00;100535.25;6127768;23;19917;-91
2022/05/10 02:00:29;;;;;;;;;;;;;;;10.92;100.00;100537.59;6127140;23;20330;-90
2022/05/10 02:02:57;;;;;;;;;;;;;;;10.87;100.00;100547.19;6106822;23;19919;-90
2022/05/10 02:05:27;;;;;;;;;;;;;;;10.81;100.00;100537.00;6121992;23;19928;-89
2022/05/10 02:07:53;;;;;;;;;;;;;;;10.74;100.00;100530.41;6121453;23;19916;-90
2022/05/10 02:10:21;;;;;;;;;;;;;;;10.76;100.00;100516.09;6123345;23;19912;-90
2022/05/10 02:12:59;;;;;;;;;;;;;;;10.70;100.00;100528.91;6124010;23;20327;-89
2022/05/10 02:15:46;;;;;;;;;;;;;;;10.70;100.00;100517.81;6099043;23;20266;-89
2022/05/10 02:18:20;;;;;;;;;;;;;;;10.71;100.00;100508.28;6112428;23;19939;-88
2022/05/10 02:20:47;;;;;;;;;;;;;;;10.67;100.00;100519.44;6122262;23;19913;-88
2022/05/10 02:23:14;;;;;;;;;;;;;;;10.53;100.00;100525.25;6122547;23;20003;-87
2022/05/10 02:25:41;;;;;;;;;;;;;;;10.53;100.00;100528.03;6123144;23;19942;-88
2022/05/10 02:28:15;;;;;;;;;;;;;;;10.46;100.00;100519.06;6121865;23;19913;-86
2022/05/10 02:30:44;;;;;;;;;;;;;;;10.49;100.00;100523.75;6126438;23;19917;-88
2022/05/10 02:33:13;;;;;;;;;;;;;;;10.50;100.00;100525.31;6124161;23;19909;-89
2022/05/10 02:35:58;;;;;;;;;;;;;;;10.48;100.00;100530.50;6124922;23;20035;-88
2022/05/10 02:38:29;;;;;;;;;;;;;;;10.45;100.00;100523.03;6124765;23;19913;-88
2022/05/10 02:40:55;;;;;;;;;;;;;;;10.44;100.00;100515.91;6124116;23;19912;-88
2022/05/10 02:43:25;;;;;;;;;;;;;;;10.46;100.00;100521.84;6124546;23;19913;-88
2022/05/10 02:45:50;;;;;;;;;;;;;;;10.39;100.00;100519.19;6124802;23;19913;-88
2022/05/10 02:48:20;;;;;;;;;;;;;;;10.37;100.00;100518.81;6124594;23;19993;-89
2022/05/10 02:50:46;;;;;;;;;;;;;;;10.33;100.00;100518.09;6123532;23;19963;-89
2022/05/10 02:53:13;;;;;;;;;;;;;;;10.26;100.00;100516.25;6124430;23;19916;-90
2022/05/10 02:55:40;;;;;;;;;;;;;;;10.32;100.00;100513.75;6124899;23;19980;-88
2022/05/10 02:58:11;;;;;;;;;;;;;;;10.35;100.00;100519.25;6124181;23;19939;-90
2022/05/10 03:00:37;;;;;;;;;;;;;;;10.32;100.00;100509.00;6124325;23;19952;-90
2022/05/10 03:03:07;;;;;;;;;;;;;;;10.22;100.00;100515.53;6122024;23;20004;-89
2022/05/10 03:05:32;;;;;;;;;;;;;;;10.08;100.00;100516.50;6100676;23;19916;-91
2022/05/10 03:07:57;;;;;;;;;;;;;;;10.06;100.00;100505.09;6122750;23;19933;-91
2022/05/10 03:10:23;;;;;;;;;;;;;;;10.06;100.00;100513.41;6152276;23;19965;-92
2022/05/10 03:12:48;;;;;;;;;;;;;;;10.03;100.00;100513.47;6103539;23;19901;-92
2022/05/10 03:15:14;;;;;;;;;;;;;;;10.06;100.00;100507.84;6124132;23;20034;-90
2022/05/10 03:17:39;;;;;;;;;;;;;;;10.05;100.00;100514.59;6099492;23;19909;-88
2022/05/10 03:20:05;;;;;;;;;;;;;;;10.00;100.00;100509.53;6075006;23;19913;-89
2022/05/10 03:22:30;;;;;;;;;;;;;;;10.02;100.00;100514.66;6100121;23;20330;-89
2022/05/10 03:24:56;;;;;;;;;;;;;;;10.05;100.00;100506.28;6099301;23;19913;-89
2022/05/10 03:27:24;;;;;;;;;;;;;;;10.02;100.00;100507.13;6100047;23;19929;-87
2022/05/10 03:29:49;;;;;;;;;;;;;;;10.01;100.00;100518.63;6099853;23;19988;-88
2022/05/10 03:32:15;;;;;;;;;;;;;;;9.95;100.00;100512.78;6099255;23;19913;-90
2022/05/10 03:34:57;;;;;;;;;;;;;;;9.94;100.00;100515.97;6125362;23;19964;-88
2022/05/10 03:37:22;;;;;;;;;;;;;;;9.94;100.00;100514.00;6125187;23;20342;-88
2022/05/10 03:39:48;;;;;;;;;;;;;;;9.93;100.00;100515.19;6125222;23;19913;-87
2022/05/10 03:42:13;;;;;;;;;;;;;;;9.92;100.00;100513.63;6098654;23;19913;-88
2022/05/10 03:44:39;;;;;;;;;;;;;;;9.93;100.00;100515.19;6075231;23;19983;-88
2022/05/10 03:47:05;;;;;;;;;;;;;;;9.92;100.00;100519.16;6099239;23;19980;-88
2022/05/10 03:49:30;;;;;;;;;;;;;;;9.94;100.00;100499.34;6099413;23;19916;-88
2022/05/10 03:51:56;;;;;;;;;;;;;;;9.98;100.00;100502.84;6073952;23;19935;-88
2022/05/10 03:54:24;;;;;;;;;;;;;;;10.01;100.00;100500.00;6099288;23;19935;-90
2022/05/10 03:56:50;;;;;;;;;;;;;;;10.09;100.00;100504.22;6099587;23;19948;-90
2022/05/10 03:59:17;;;;;;;;;;;;;;;10.18;100.00;100503.72;6099304;23;19909;-90
2022/05/10 04:01:43;;;;;;;;;;;;;;;10.24;100.00;100502.81;6099241;23;19959;-91
2022/05/10 04:04:08;;;;;;;;;;;;;;;10.32;100.00;100513.75;6118496;23;19912;-90
2022/05/10 04:06:34;;;;;;;;;;;;;;;10.34;100.00;100511.34;6128484;23;19979;-91
2022/05/10 04:08:59;;;;;;;;;;;;;;;10.31;100.00;100495.56;6154319;23;20259;-90
2022/05/10 04:11:27;;;;;;;;;;;;;;;10.29;100.00;100507.88;6154486;23;19999;-90
2022/05/10 04:13:54;;;;;;;;;;;;;;;10.34;100.00;100505.81;6128518;23;19912;-88
2022/05/10 04:16:21;;;;;;;;;;;;;;;10.39;100.00;100513.66;6154476;23;19912;-88
2022/05/10 04:18:48;;;;;;;;;;;;;;;10.41;100.00;100517.56;6129791;23;19908;-88
2022/05/10 04:21:13;;;;;;;;;;;;;;;10.46;100.00;100513.50;6128038;23;19954;-88
2022/05/10 04:23:39;;;;;;;;;;;;;;;10.50;100.00;100508.69;6154413;23;19963;-88
2022/05/10 04:26:05;;;;;;;;;;;;;;;10.53;100.00;100513.38;6128549;23;20501;-88
2022/05/10 04:28:31;;;;;;;;;;;;;;;10.58;100.00;100512.88;6154471;23;19913;-88
2022/05/10 04:30:57;;;;;;;;;;;;;;;10.67;100.00;100518.66;6154478;23;19961;-88
2022/05/10 04:33:22;;;;;;;;;;;;;;;10.74;100.00;100519.31;6153044;23;19908;-90
2022/05/10 04:35:50;;;;;;;;;;;;;;;10.82;100.00;100510.81;6153481;23;19912;-90
2022/05/10 04:38:16;;;;;;;;;;;;;;;10.90;100.00;100521.38;6152334;23;19999;-89
2022/05/10 04:43:27;;;;;;;;;;;;;;;11.13;100.00;100524.03;6151763;23;19920;-91
2022/05/10 04:45:52;;;;;;;;;;;;;;;11.26;100.00;100528.94;6151484;23;20676;-91
2022/05/10 04:48:17;;;;;;;;;;;;;;;11.27;100.00;100517.41;6076736;23;19912;-90
2022/05/10 04:50:43;;;;;;;;;;;;;;;11.31;100.00;100529.22;6151834;23;20306;-91
2022/05/10 04:53:08;;;;;;;;;;;;;;;11.33;100.00;100523.22;6125371;23;19913;-88
2022/05/10 04:55:34;;;;;;;;;;;;;;;11.42;100.00;100529.75;6150673;23;20350;-88
2022/05/10 04:57:59;;;;;;;;;;;;;;;11.44;100.00;100535.69;6124616;23;20340;-87
2022/05/10 05:00:26;;;;;;;;;;;;;;;11.53;100.00;100532.28;6124649;23;19917;-88
2022/05/10 05:02:51;;;;;;;;;;;;;;;11.65;100.00;100543.50;6072236;23;20292;-87
2022/05/10 05:05:17;;;;;;;;;;;;;;;11.78;100.00;100535.31;6122526;23;20354;-88
2022/05/10 05:07:43;;;;;;;;;;;;;;;11.90;100.00;100531.06;6096099;23;19917;-88
2022/05/10 05:10:09;;;;;;;;;;;;;;;12.00;100.00;100541.16;6070829;23;19920;-87
2022/05/10 05:12:35;;;;;;;;;;;;;;;12.13;100.00;100544.81;6095837;23;19991;-87
2022/05/10 05:15:00;;;;;;;;;;;;;;;12.31;100.00;100541.56;6122351;23;19988;-87
2022/05/10 05:17:28;;;;;;;;;;;;;;;12.48;100.00;100537.53;6071906;23;20040;-87
2022/05/10 05:19:53;;;;;;;;;;;;;;;12.65;100.00;100525.16;6121526;23;19923;-88
2022/05/10 05:22:18;;;;;;;;;;;;;;;12.91;100.00;100542.72;6123048;23;19988;-88
2022/05/10 05:24:44;;;;;;;;;;;;;;;13.18;100.00;100547.97;6123711;23;19983;-88
2022/05/10 05:27:10;;;;;;;;;;;;;;;13.38;100.00;100542.97;6097168;23;19917;-87
2022/05/10 05:29:38;;;;;;;;;;;;;;;13.53;100.00;100544.09;6074396;23;19987;-88
2022/05/10 05:32:05;;;;;;;;;;;;;;;13.74;100.00;100548.25;6123568;23;20001;-88
2022/05/10 05:34:30;;;;;;;;;;;;;;;13.90;100.00;100548.91;6073358;23;19920;-89
2022/05/10 05:39:40;;;;;;;;;;;;;;;14.34;100.00;100551.84;6099697;23;19991;-88
2022/05/10 05:42:05;;;;;;;;;;;;;;;14.50;100.00;100557.28;6097479;23;20324;-88
2022/05/10 05:44:31;;;;;;;;;;;;;;;14.62;100.00;100559.25;6096744;23;19919;-88
2022/05/10 05:46:57;;;;;;;;;;;;;;;14.81;100.00;100551.81;6097213;23;19936;-88
2022/05/10 05:49:26;;;;;;;;;;;;;;;15.04;100.00;100550.59;6121874;23;19913;-88
2022/05/10 05:51:58;;;;;;;;;;;;;;;15.25;100.00;100552.56;6119943;23;20268;-88
2022/05/10 05:54:23;;;;;;;;;;;;;;;15.56;100.00;100547.81;6094781;23;19983;-87
2022/05/10 05:56:49;;;;;;;;;;;;;;;15.87;100.00;100558.97;6096142;23;20315;-88
2022/05/10 05:59:14;;;;;;;;;;;;;;;16.13;99.02;100559.53;6071694;23;19923;-87
2022/05/10 06:01:39;;;;;;;;;;;;;;;16.27;97.28;100558.94;6093809;23;19933;-87
2022/05/10 06:04:05;;;;;;;;;;;;;;;16.40;96.97;100562.38;6119676;23;20012;-87
2022/05/10 06:06:30;;;;;;;;;;;;;;;16.62;96.97;100573.50;6096932;23;20347;-87
2022/05/10 06:08:56;;;;;;;;;;;;;;;16.78;96.14;100576.75;6123119;23;20238;-92
2022/05/10 06:11:21;;;;;;;;;;;;;;;17.02;94.81;100567.75;6124192;23;19992;-93
2022/05/10 06:13:47;;;;;;;;;;;;;;;17.21;93.24;100570.03;6125048;23;19924;-92
2022/05/10 06:16:12;;;;;;;;;;;;;;;17.46;92.89;100568.91;6099503;23;20243;-93
2022/05/10 06:18:37;;;;;;;;;;;;;;;17.61;91.41;100569.03;6098916;23;19927;-93
2022/05/10 06:21:03;;;;;;;;;;;;;;;17.76;89.66;100569.13;6125597;23;20414;-93
2022/05/10 06:23:29;;;;;;;;;;;;;;;17.96;89.19;100570.13;6076228;23;19916;-92
2022/05/10 06:25:54;;;;;;;;;;;;;;;17.97;87.68;100573.72;6099585;23;19912;-88
2022/05/10 06:28:20;;;;;;;;;;;;;;;18.12;86.91;100578.16;6100006;23;19913;-86
2022/05/10 06:30:45;;;;;;;;;;;;;;;18.36;84.24;100578.19;6125732;23;19908;-85
2022/05/10 06:33:11;;;;;;;;;;;;;;;18.57;83.31;100582.75;6099325;23;19939;-85
2022/05/10 06:35:37;;;;;;;;;;;;;;;18.84;83.35;100578.97;6100085;23;19913;-85
2022/05/10 06:38:26;;;;;;;;;;;;;;;19.03;82.47;100579.59;6125326;23;20040;-86
2022/05/10 06:40:51;;;;;;;;;;;;;;;19.13;82.18;100578.22;6125082;23;19912;-87
2022/05/10 06:43:17;;;;;;;;;;;;;;;19.38;80.07;100582.53;6099191;23;19924;-85
2022/05/10 06:45:43;;;;;;;;;;;;;;;19.49;79.01;100583.53;6074934;23;19908;-93
2022/05/10 06:48:09;;;;;;;;;;;;;;;19.42;79.75;100581.09;6099026;23;20516;-92
2022/05/10 06:50:35;;;;;;;;;;;;;;;19.57;77.01;100578.31;6126210;23;19916;-93
2022/05/10 06:53:00;;;;;;;;;;;;;;;19.67;77.97;100584.59;6098867;23;19915;-94
2022/05/10 06:55:26;;;;;;;;;;;;;;;19.79;77.30;100572.25;6124855;23;19960;-94
2022/05/10 06:57:52;;;;;;;;;;;;;;;19.88;76.16;100583.41;6124847;23;19909;-92
2022/05/10 07:00:18;;;;;;;;;;;;;;;19.74;77.54;100582.16;6098836;23;20248;-93
2022/05/10 07:02:43;;;;;;;;;;;;;;;20.19;76.71;100583.59;6099193;23;19913;-92
2022/05/10 07:05:09;;;;;;;;;;;;;;;20.51;72.39;100581.00;6124322;23;19916;-89
2022/05/10 07:07:34;;;;;;;;;;;;;;;20.63;72.19;100583.47;6099109;23;19912;-89
2022/05/10 07:10:00;;;;;;;;;;;;;;;20.73;71.23;100575.66;6125041;23;19913;-88
2022/05/10 07:12:26;;;;;;;;;;;;;;;20.67;68.47;100589.66;6099511;23;19913;-89
2022/05/10 07:14:51;;;;;;;;;;;;;;;20.57;70.00;100590.31;6125023;23;19939;-89
2022/05/10 07:17:16;;;;;;;;;;;;;;;20.88;70.54;100587.59;6075003;23;19912;-86
2022/05/10 07:19:42;;;;;;;;;;;;;;;21.12;70.36;100590.22;6125477;23;19938;-86
2022/05/10 07:22:07;;;;;;;;;;;;;;;21.23;71.78;100590.34;6074835;23;19952;-86
2022/05/10 07:24:33;;;;;;;;;;;;;;;21.25;70.35;100591.38;6051648;23;20324;-87
2022/05/10 07:26:58;;;;;;;;;;;;;;;21.32;69.51;100593.75;6124971;23;20411;-87
2022/05/10 07:29:23;;;;;;;;;;;;;;;21.33;71.62;100578.38;6125077;23;19921;-86
2022/05/10 07:31:49;;;;;;;;;;;;;;;21.35;69.81;100589.94;6125300;23;19924;-87
2022/05/10 07:34:14;;;;;;;;;;;;;;;21.39;68.86;100593.31;6124782;23;19991;-87
2022/05/10 07:36:40;;;;;;;;;;;;;;;21.72;68.49;100592.06;6125010;23;19920;-87
2022/05/10 07:39:06;;;;;;;;;;;;;;;21.89;69.12;100590.16;6124564;23;20292;-87
2022/05/10 07:41:32;;;;;;;;;;;;;;;22.02;67.15;100593.38;6124979;23;19913;-86
2022/05/10 07:43:57;;;;;;;;;;;;;;;22.25;66.51;100589.41;6124760;23;19912;-91
2022/05/10 07:46:23;;;;;;;;;;;;;;;22.23;66.49;100586.31;6099309;23;19913;-90
2022/05/10 07:48:48;;;;;;;;;;;;;;;22.30;65.77;100585.84;6124940;23;19913;-91
2022/05/10 07:51:14;;;;;;;;;;;;;;;22.37;65.42;100593.06;6125202;23;19917;-89
2022/05/10 07:53:41;;;;;;;;;;;;;;;22.19;64.66;100582.97;6099178;23;19923;-91
2022/05/10 07:56:07;;;;;;;;;;;;;;;22.37;65.02;100589.47;6124736;23;20243;-92
2022/05/10 07:58:34;;;;;;;;;;;;;;;22.35;65.67;100587.16;6098731;23;19913;-90
2022/05/10 08:01:00;;;;;;;;;;;;;;;22.23;64.14;100575.03;6125038;23;19913;-87
2022/05/10 08:03:26;;;;;;;;;;;;;;;22.47;64.26;100580.28;6104856;23;20319;-86
2022/05/10 08:05:52;;;;;;;;;;;;;;;22.60;65.11;100577.78;6121404;23;20243;-87
2022/05/10 08:08:17;;;;;;;;;;;;;;;22.85;62.80;100581.00;6120428;23;19917;-87
2022/05/10 08:10:43;;;;;;;;;;;;;;;22.75;62.55;100577.59;6123175;23;20254;-87
2022/05/10 08:13:11;;;;;;;;;;;;;;;22.56;64.10;100573.66;6122911;23;19912;-87
2022/05/10 08:15:37;;;;;;;;;;;;;;;22.80;63.16;100585.34;6123332;23;19919;-87
2022/05/10 08:18:02;;;;;;;;;;;;;;;22.83;62.69;100581.50;6124020;23;19908;-87
2022/05/10 08:20:28;;;;;;;;;;;;;;;23.03;62.98;100578.47;6124934;23;19952;-92
2022/05/10 08:22:53;;;;;;;;;;;;;;;22.94;59.91;100581.53;6148078;23;20347;-92
2022/05/10 08:25:18;;;;;;;;;;;;;;;23.19;60.67;100576.97;6124506;23;20326;-91
2022/05/10 08:27:44;;;;;;;;;;;;;;;23.49;59.88;100574.47;6122849;23;19919;-92
2022/05/10 08:30:10;;;;;;;;;;;;;;;23.72;58.30;100573.19;6124486;23;19971;-91
2022/05/10 08:32:35;;;;;;;;;;;;;;;23.83;59.02;100575.22;6124694;23;19909;-91
2022/05/10 08:35:01;;;;;;;;;;;;;;;24.06;58.29;100577.50;6098525;23;19995;-91
2022/05/10 08:37:26;;;;;;;;;;;;;;;24.14;57.36;100587.06;6147756;23;19971;-92
2022/05/10 08:39:51;;;;;;;;;;;;;;;24.21;55.42;100590.66;6123038;23;20371;-88
2022/05/10 08:42:25;;;;;;;;;;;;;;;23.82;52.87;100577.28;6122731;23;19913;-88
2022/05/10 08:44:54;;;;;;;;;;;;;;;23.99;55.64;100582.94;6123110;23;19939;-88
2022/05/10 08:47:19;;;;;;;;;;;;;;;24.11;54.47;100579.56;6122849;23;19920;-88
2022/05/10 08:49:49;;;;;;;;;;;;;;;24.48;52.85;100584.16;6098512;23;19912;-89
2022/05/10 08:52:15;;;;;;;;;;;;;;;24.67;52.23;100573.00;6122700;23;19917;-88
2022/05/10 08:54:41;;;;;;;;;;;;;;;24.97;50.61;100574.69;6098535;23;19916;-88
2022/05/10 08:57:06;;;;;;;;;;;;;;;24.59;50.78;100567.84;6098441;23;19913;-88
2022/05/10 08:59:35;;;;;;;;;;;;;;;24.44;50.26;100566.63;6122809;23;19912;-91
2022/05/10 09:02:04;;;;;;;;;;;;;;;24.41;50.84;100562.00;6098082;23;20494;-91
2022/05/10 09:04:46;;;;;;;;;;;;;;;24.74;50.98;100570.38;6122780;23;19924;-91
2022/05/10 09:07:13;;;;;;;;;;;;;;;25.07;50.22;100570.22;6122731;23;20351;-91
2022/05/10 09:09:57;;;;;;;;;;;;;;;25.27;49.48;100559.81;6122804;23;19909;-91
2022/05/10 09:12:23;;;;;;;;;;;;;;;24.76;49.33;100558.50;6122416;23;19923;-92
2022/05/10 09:14:55;;;;;;;;;;;;;;;24.33;49.73;100567.44;6122721;23;20250;-92
2022/05/10 09:17:20;;;;;;;;;;;;;;;24.55;50.45;100566.59;6122682;23;19920;-91
2022/05/10 09:19:46;;;;;;;;;;;;;;;24.72;49.77;100564.44;6122620;23;20394;-91
2022/05/10 09:22:24;;;;;;;;;;;;;;;24.91;48.41;100553.31;6122785;23;20417;-90
2022/05/10 09:24:51;;;;;;;;;;;;;;;25.22;48.95;100549.25;6124179;23;19948;-91
2022/05/10 09:27:16;;;;;;;;;;;;;;;25.31;49.40;100546.09;6122663;23;19909;-90
2022/05/10 09:29:46;;;;;;;;;;;;;;;25.38;47.48;100551.97;6122380;23;20048;-92
2022/05/10 09:35:12;;;;;;;;;;;;;;;25.82;45.48;100548.00;6101567;23;20338;-91
2022/05/10 09:37:49;;;;;;;;;;;;;;;25.73;44.97;100554.03;6122770;23;19909;-91
2022/05/10 09:40:30;;;;;;;;;;;;;;;25.80;45.87;100547.75;6122007;23;19917;-91
2022/05/10 09:43:10;;;;;;;;;;;;;;;25.66;47.12;100540.41;6124164;23;19912;-88
2022/05/10 09:45:36;;;;;;;;;;;;;;;24.94;49.13;100535.22;6124503;23;19917;-91
2022/05/10 09:48:09;;;;;;;;;;;;;;;24.46;50.36;100549.88;6122850;23;19913;-89
2022/05/10 09:50:49;;;;;;;;;;;;;;;24.12;51.07;100547.09;6122499;23;19983;-90
2022/05/10 09:53:29;;;;;;;;;;;;;;;23.92;51.29;100538.91;6122657;23;20004;-90
2022/05/10 09:55:57;;;;;;;;;;;;;;;24.02;51.10;100548.66;6122153;23;19917;-89
2022/05/10 09:58:28;;;;;;;;;;;;;;;23.95;50.13;100535.03;6122121;23;19941;-89
2022/05/10 10:00:53;;;;;;;;;;;;;;;23.67;51.08;100534.28;6122573;23;19945;-88
2022/05/10 10:03:27;;;;;;;;;;;;;;;23.49;50.87;100529.16;6123410;23;20040;-88
2022/05/10 10:05:54;;;;;;;;;;;;;;;23.22;51.27;100533.47;6098759;23;20562;-88
2022/05/10 10:08:36;;;;;;;;;;;;;;;23.00;52.01;100533.44;6098032;23;20026;-88
2022/05/10 10:11:02;;;;;;;;;;;;;;;22.82;51.52;100531.84;6123831;23;19972;-88
2022/05/10 10:13:29;;;;;;;;;;;;;;;22.56;50.66;100534.06;6098304;23;20327;-88
2022/05/10 10:15:54;;;;;;;;;;;;;;;22.49;51.85;100540.19;6097717;23;19919;-88
2022/05/10 10:18:59;;;;;;;;;;;;;;;22.46;51.57;100541.22;6123519;23;19995;-88
2022/05/10 10:21:34;;;;;;;;;;;;;;;22.45;53.11;100531.16;6005740;23;19938;-88
2022/05/10 10:24:00;;;;;;;;;;;;;;;22.61;51.93;100524.81;6005513;23;19914;-88
2022/05/10 10:26:33;;;;;;;;;;;;;;;23.00;51.60;100520.09;6068856;23;19951;-88
2022/05/10 10:29:10;;;;;;;;;;;;;;;23.68;50.93;100525.28;6098131;23;19983;-88
2022/05/10 10:31:36;;;;;;;;;;;;;;;24.19;50.08;100511.03;6124112;23;20391;-87
2022/05/10 10:34:03;;;;;;;;;;;;;;;24.44;48.48;100509.91;6097643;23;19909;-87
2022/05/10 10:36:37;;;;;;;;;;;;;;;24.48;46.93;100513.25;6098029;23;20326;-90
2022/05/10 10:39:05;;;;;;;;;;;;;;;24.23;45.92;100511.53;6097819;23;19920;-89
2022/05/10 10:41:45;;;;;;;;;;;;;;;24.16;47.11;100501.53;6123993;23;20292;-90
2022/05/10 10:44:26;;;;;;;;;;;;;;;24.69;45.01;100491.75;6097666;23;19959;-88
2022/05/10 10:47:07;;;;;;;;;;;;;;;25.29;44.22;100494.72;6098003;23;20287;-90
2022/05/10 10:49:35;;;;;;;;;;;;;;;25.78;44.22;100487.84;6097691;23;20243;-90
2022/05/10 10:52:01;;;;;;;;;;;;;;;25.97;42.04;100487.91;6099580;23;19909;-90
2022/05/10 10:54:27;;;;;;;;;;;;;;;25.91;40.77;100490.81;6125379;23;20525;-88
2022/05/10 10:56:58;;;;;;;;;;;;;;;25.59;40.82;100484.19;6099952;23;19913;-88
2022/05/10 10:59:33;;;;;;;;;;;;;;;25.17;41.41;100484.75;6125424;23;19924;-88
2022/05/10 11:02:02;;;;;;;;;;;;;;;24.86;41.38;100477.50;6073616;23;19963;-87
2022/05/10 11:04:43;;;;;;;;;;;;;;;24.15;42.06;100478.06;6118328;23;19912;-88
2022/05/10 11:07:12;;;;;;;;;;;;;;;23.82;43.58;100477.38;6125107;23;19920;-87
2022/05/10 11:09:44;;;;;;;;;;;;;;;24.07;42.15;100470.59;6123354;23;19923;-90
2022/05/10 11:12:16;;;;;;;;;;;;;;;24.56;43.22;100466.03;6122047;23;19913;-87
2022/05/10 11:14:53;;;;;;;;;;;;;;;25.17;40.50;100462.03;6124071;23;20162;-94
2022/05/10 11:17:34;;;;;;;;;;;;;;;25.43;39.08;100456.66;6122399;23;19972;-88
2022/05/10 11:20:11;;;;;;;;;;;;;;;25.64;38.77;100449.25;6122006;23;19959;-88
2022/05/10 11:22:39;;;;;;;;;;;;;;;25.82;38.15;100440.03;6122531;23;19960;-88
2022/05/10 11:25:07;;;;;;;;;;;;;;;25.60;39.41;100440.25;6123657;23;20328;-89
2022/05/10 11:27:51;;;;;;;;;;;;;;;25.55;38.66;100432.56;6124270;23;19917;-88
2022/05/10 11:30:21;;;;;;;;;;;;;;;25.52;38.57;100437.22;6122982;23;19923;-91
2022/05/10 11:32:53;;;;;;;;;;;;;;;25.35;40.51;100438.66;6122503;23;19916;-88
2022/05/10 11:35:26;;;;;;;;;;;;;;;24.83;42.04;100421.78;6123329;23;19917;-88
2022/05/10 11:37:51;;;;;;;;;;;;;;;25.05;43.93;100422.41;6122475;23;19919;-88
2022/05/10 11:40:45;;;;;;;;;;;;;;;25.13;45.89;100424.66;6123489;23;19944;-88
2022/05/10 11:43:13;;;;;;;;;;;;;;;25.24;45.14;100413.19;6100975;23;19923;-90
2022/05/10 11:45:58;;;;;;;;;;;;;;;25.32;43.00;100405.63;6120875;23;20390;-90
2022/05/10 11:48:35;;;;;;;;;;;;;;;24.94;43.74;100411.16;6122750;23;20019;-89
2022/05/10 11:51:39;;;;;;;;;;;;;;;25.17;44.51;100410.94;6122411;23;19933;-87
2022/05/10 11:54:23;;;;;;;;;;;;;;;24.82;44.28;100412.50;6123180;23;20044;-88
2022/05/10 11:56:49;;;;;;;;;;;;;;;24.84;45.10;100407.06;6122908;23;20250;-88
2022/05/10 11:59:20;;;;;;;;;;;;;;;25.01;44.57;100406.97;6120558;23;19925;-87
2022/05/10 12:01:49;;;;;;;;;;;;;;;25.02;44.04;100409.28;6120905;23;19913;-86
2022/05/10 12:04:40;;;;;;;;;;;;;;;24.98;44.64;100405.19;6120021;23;19927;-86
2022/05/10 12:07:23;;;;;;;;;;;;;;;25.29;43.89;100401.03;6119290;23;19913;-87
2022/05/10 12:09:52;;;;;;;;;;;;;;;25.54;43.30;100394.09;6122424;23;20003;-87
2022/05/10 12:12:32;;;;;;;;;;;;;;;25.76;41.17;100385.31;6123381;23;20276;-88
2022/05/10 12:23:47;;;;;;;;;;;;;;;26.69;39.09;100386.69;6122382;23;19917;-88
2022/05/10 12:26:31;;;;;;;;;;;;;;;26.48;37.60;100377.94;6120934;23;19917;-88
2022/05/10 12:28:56;;;;;;;;;;;;;;;26.30;37.42;100375.88;6117929;23;20240;-88
2022/05/10 12:31:31;;;;;;;;;;;;;;;25.80;36.09;100371.56;6118607;23;19958;-88
2022/05/10 12:34:07;;;;;;;;;;;;;;;25.19;37.96;100368.63;6120532;23;19916;-88
2022/05/10 12:36:37;;;;;;;;;;;;;;;25.26;38.70;100360.28;6121095;23;20299;-87
2022/05/10 12:39:23;;;;;;;;;;;;;;;25.29;38.68;100358.44;6120395;23;20331;-87
2022/05/10 12:41:50;;;;;;;;;;;;;;;25.76;38.01;100359.75;6123664;23;20395;-87
2022/05/10 12:44:33;;;;;;;;;;;;;;;26.10;38.33;100350.78;6121285;23;20362;-88
2022/05/10 12:47:07;;;;;;;;;;;;;;;26.60;37.72;100348.03;6121932;23;19920;-89
2022/05/10 12:49:55;;;;;;;;;;;;;;;27.01;36.74;100353.31;6121876;23;19995;-87
2022/05/10 12:52:40;;;;;;;;;;;;;;;27.11;37.16;100348.75;6122922;23;19984;-87
2022/05/10 12:55:16;;;;;;;;;;;;;;;26.33;37.91;100349.97;6119259;23;19950;-87
2022/05/10 12:57:43;;;;;;;;;;;;;;;26.36;40.57;100357.44;6119615;23;19913;-87
2022/05/10 13:00:13;;;;;;;;;;;;;;;25.94;40.73;100353.31;6116422;23;19912;-87
2022/05/10 13:02:43;;;;;;;;;;;;;;;25.06;43.05;100347.31;6120316;23;19909;-87
2022/05/10 13:05:13;;;;;;;;;;;;;;;24.17;44.97;100349.25;6096381;23;19912;-90
2022/05/10 13:07:51;;;;;;;;;;;;;;;23.43;46.99;100350.78;6097326;23;19935;-87
2022/05/10 13:10:20;;;;;;;;;;;;;;;22.95;49.49;100353.94;6122439;23;19940;-87
2022/05/10 13:13:05;;;;;;;;;;;;;;;23.24;49.10;100344.91;6096872;23;19908;-87
2022/05/10 13:15:31;;;;;;;;;;;;;;;23.66;48.20;100337.34;6122468;23;19917;-88
2022/05/10 13:17:57;;;;;;;;;;;;;;;23.86;47.38;100337.00;6123557;23;19920;-88
2022/05/10 13:20:23;;;;;;;;;;;;;;;24.13;47.27;100327.59;6096816;23;19909;-87
2022/05/10 13:22:56;;;;;;;;;;;;;;;24.12;47.47;100325.28;6098095;23;19975;-87
2022/05/10 13:25:28;;;;;;;;;;;;;;;23.67;44.90;100324.72;6097259;23;19917;-87
2022/05/10 13:28:04;;;;;;;;;;;;;;;23.90;45.55;100317.66;6098583;23;20303;-89
2022/05/10 13:30:30;;;;;;;;;;;;;;;23.85;46.10;100317.69;6123458;23;19919;-90
2022/05/10 13:32:55;;;;;;;;;;;;;;;23.69;44.93;100316.50;6123983;23;19940;-89
2022/05/10 13:35:24;;;;;;;;;;;;;;;23.50;44.27;100312.69;6123069;23;19917;-90
2022/05/10 13:38:08;;;;;;;;;;;;;;;23.78;45.03;100304.09;6124263;23;20250;-90
2022/05/10 13:40:34;;;;;;;;;;;;;;;24.27;45.08;100296.59;6073742;23;19912;-90
2022/05/10 13:43:09;;;;;;;;;;;;;;;24.53;43.11;100296.94;6123980;23;20339;-87
2022/05/10 13:45:35;;;;;;;;;;;;;;;24.81;42.79;100291.03;6097777;23;19924;-88
2022/05/10 13:48:04;;;;;;;;;;;;;;;24.73;42.49;100299.34;6122687;23;19908;-88
2022/05/10 13:50:29;;;;;;;;;;;;;;;25.06;42.71;100286.94;6120761;23;19912;-92
2022/05/10 13:52:56;;;;;;;;;;;;;;;25.33;43.12;100285.09;6122819;23;19917;-89
2022/05/10 13:55:22;;;;;;;;;;;;;;;25.61;42.50;100288.41;6096300;23;19952;-88
2022/05/10 13:58:08;;;;;;;;;;;;;;;25.46;41.97;100279.53;6122535;23;19912;-88
2022/05/10 14:00:37;;;;;;;;;;;;;;;25.14;40.63;100279.38;6096547;23;19971;-88
2022/05/10 14:03:08;;;;;;;;;;;;;;;24.69;42.15;100267.66;6078773;23;20298;-88
2022/05/10 14:05:34;;;;;;;;;;;;;;;25.12;41.50;100267.75;6126288;23;19958;-89